createdAt,value
2017-10-12T00:00:19.124Z,13.99
2017-10-12T00:00:59.663Z,14.02
2017-10-12T00:01:40.190Z,13.89
2017-10-12T00:02:20.711Z,13.89
2017-10-12T00:03:01.257Z,13.96
2017-10-12T00:03:41.782Z,13.96
2017-10-12T00:04:22.312Z,13.95
2017-10-12T00:05:02.846Z,13.82
2017-10-12T00:05:43.367Z,13.92
2017-10-12T00:06:23.916Z,13.88
2017-10-12T00:07:04.467Z,13.87
2017-10-12T00:07:44.987Z,13.92
2017-10-12T00:08:25.515Z,13.85
2017-10-12T00:09:06.063Z,13.84
2017-10-12T00:09:46.596Z,13.87
2017-10-12T00:10:27.125Z,13.79
2017-10-12T00:11:07.658Z,13.82
2017-10-12T00:11:48.223Z,13.78
2017-10-12T00:12:28.739Z,13.84
2017-10-12T00:13:09.335Z,13.82
2017-10-12T00:13:49.999Z,13.81
2017-10-12T00:14:30.522Z,13.73
2017-10-12T00:15:11.073Z,13.79
2017-10-12T00:15:51.615Z,13.82
2017-10-12T00:16:32.148Z,13.78
2017-10-12T00:17:12.689Z,13.82
2017-10-12T00:17:53.229Z,13.79
2017-10-12T00:18:33.767Z,13.82
2017-10-12T00:19:14.284Z,13.85
2017-10-12T00:19:54.826Z,13.82
2017-10-12T00:20:35.330Z,13.84
2017-10-12T00:21:15.857Z,13.88
2017-10-12T00:21:56.384Z,13.82
2017-10-12T00:22:36.912Z,13.84
2017-10-12T00:23:17.450Z,13.79
2017-10-12T00:23:58.005Z,13.87
2017-10-12T00:24:38.551Z,13.88
2017-10-12T00:25:19.163Z,13.92
2017-10-12T00:25:59.687Z,13.79
2017-10-12T00:26:40.238Z,13.84
2017-10-12T00:27:20.782Z,13.88
2017-10-12T00:28:01.311Z,13.88
2017-10-12T00:28:41.849Z,13.84
2017-10-12T00:29:22.368Z,13.84
2017-10-12T00:30:02.889Z,13.82
2017-10-12T00:30:43.431Z,13.79
2017-10-12T00:31:23.967Z,13.87
2017-10-12T00:32:04.503Z,13.82
2017-10-12T00:32:45.037Z,13.79
2017-10-12T00:33:25.571Z,13.81
2017-10-12T00:34:06.092Z,13.91
2017-10-12T00:34:46.625Z,13.87
2017-10-12T00:35:27.158Z,13.87
2017-10-12T00:36:07.678Z,13.92
2017-10-12T00:36:48.217Z,13.87
2017-10-12T00:37:28.751Z,13.95
2017-10-12T00:38:09.278Z,13.89
2017-10-12T00:38:49.819Z,13.96
2017-10-12T00:39:30.355Z,13.99
2017-10-12T00:40:10.888Z,13.95
2017-10-12T00:40:51.421Z,13.89
2017-10-12T00:41:31.944Z,13.96
2017-10-12T00:42:12.479Z,13.89
2017-10-12T00:42:52.998Z,13.91
2017-10-12T00:43:33.533Z,13.91
2017-10-12T00:44:14.052Z,14.02
2017-10-12T00:44:54.622Z,13.91
2017-10-12T00:45:35.143Z,13.92
2017-10-12T00:46:15.683Z,13.95
2017-10-12T00:46:56.201Z,13.96
2017-10-12T00:47:36.722Z,13.96
2017-10-12T00:48:17.274Z,14
2017-10-12T00:48:57.804Z,14.02
2017-10-12T00:49:38.344Z,14.04
2017-10-12T00:50:18.883Z,14.02
2017-10-12T00:50:59.419Z,13.99
2017-10-12T00:51:39.965Z,13.97
2017-10-12T00:52:20.499Z,14.04
2017-10-12T00:53:01.035Z,14.02
2017-10-12T00:53:41.572Z,13.99
2017-10-12T00:54:22.097Z,14.02
2017-10-12T00:55:02.631Z,14.06
2017-10-12T00:55:43.169Z,14.02
2017-10-12T00:56:23.704Z,14.02
2017-10-12T00:57:04.230Z,14
2017-10-12T00:57:44.757Z,14
2017-10-12T00:58:25.320Z,14.03
2017-10-12T00:59:05.849Z,14.09
2017-10-12T00:59:46.367Z,14.03
2017-10-12T01:00:26.944Z,14.03
2017-10-12T01:01:07.463Z,14.02
2017-10-12T01:01:48.102Z,14.1
2017-10-12T01:02:28.635Z,14.07
2017-10-12T01:03:09.156Z,14.07
2017-10-12T01:03:49.705Z,14.03
2017-10-12T01:04:30.235Z,14.09
2017-10-12T01:05:10.766Z,14.06
2017-10-12T01:05:51.307Z,14.03
2017-10-12T01:06:31.853Z,14.07
2017-10-12T01:07:12.377Z,14.09
2017-10-12T01:07:52.928Z,14.03
2017-10-12T01:08:33.454Z,14.12
2017-10-12T01:09:13.973Z,14.09
2017-10-12T01:09:54.498Z,14.14
2017-10-12T01:10:35.018Z,14.12
2017-10-12T01:11:15.567Z,14.21
2017-10-12T01:11:56.072Z,14.27
2017-10-12T01:12:36.605Z,14.24
2017-10-12T01:13:17.144Z,14.25
2017-10-12T01:13:57.669Z,14.24
2017-10-12T01:14:38.193Z,14.21
2017-10-12T01:15:18.735Z,14.21
2017-10-12T01:15:59.273Z,14.2
2017-10-12T01:16:39.814Z,14.2
2017-10-12T01:17:20.329Z,14.21
2017-10-12T01:18:00.893Z,14.25
2017-10-12T01:18:41.398Z,14.21
2017-10-12T01:19:21.925Z,14.18
2017-10-12T01:20:02.455Z,14.25
2017-10-12T01:20:42.974Z,14.28
2017-10-12T01:21:23.527Z,14.22
2017-10-12T01:22:04.050Z,14.29
2017-10-12T01:22:44.586Z,14.29
2017-10-12T01:23:25.121Z,14.27
2017-10-12T01:24:05.654Z,14.18
2017-10-12T01:24:46.175Z,14.24
2017-10-12T01:25:26.701Z,14.24
2017-10-12T01:26:07.233Z,14.22
2017-10-12T01:26:47.784Z,14.21
2017-10-12T01:27:28.306Z,14.24
2017-10-12T01:28:08.834Z,14.29
2017-10-12T01:28:49.386Z,14.33
2017-10-12T01:29:29.904Z,14.35
2017-10-12T01:30:10.443Z,14.33
2017-10-12T01:30:50.987Z,14.29
2017-10-12T01:31:31.557Z,14.36
2017-10-12T01:32:12.116Z,14.36
2017-10-12T01:32:52.637Z,14.43
2017-10-12T01:33:33.174Z,14.36
2017-10-12T01:34:13.718Z,14.43
2017-10-12T01:34:54.242Z,14.42
2017-10-12T01:35:34.779Z,14.39
2017-10-12T01:36:15.337Z,14.4
2017-10-12T01:36:55.854Z,14.42
2017-10-12T01:37:36.382Z,14.43
2017-10-12T01:38:16.899Z,14.45
2017-10-12T01:38:57.443Z,14.42
2017-10-12T01:39:37.976Z,14.4
2017-10-12T01:40:18.515Z,14.42
2017-10-12T01:40:59.053Z,14.55
2017-10-12T01:41:39.588Z,14.5
2017-10-12T01:42:20.132Z,14.46
2017-10-12T01:43:00.666Z,14.45
2017-10-12T01:43:41.202Z,14.52
2017-10-12T01:44:21.819Z,14.55
2017-10-12T01:45:02.301Z,14.47
2017-10-12T01:45:42.836Z,14.54
2017-10-12T01:46:23.378Z,14.54
2017-10-12T01:47:03.901Z,14.58
2017-10-12T01:47:44.418Z,14.58
2017-10-12T01:48:24.957Z,14.54
2017-10-12T01:49:05.501Z,14.62
2017-10-12T01:49:46.058Z,14.69
2017-10-12T01:50:26.593Z,14.61
2017-10-12T01:51:07.140Z,14.65
2017-10-12T01:51:47.653Z,14.65
2017-10-12T01:52:28.221Z,14.62
2017-10-12T01:53:08.763Z,14.62
2017-10-12T01:53:49.338Z,14.72
2017-10-12T01:54:29.864Z,14.65
2017-10-12T01:55:10.402Z,14.6
2017-10-12T01:55:50.946Z,14.57
2017-10-12T01:56:31.488Z,14.68
2017-10-12T01:57:12.012Z,14.57
2017-10-12T01:57:52.562Z,14.61
2017-10-12T01:58:33.081Z,14.61
2017-10-12T01:59:13.628Z,14.73
2017-10-12T01:59:54.210Z,14.77
2017-10-12T02:00:34.756Z,14.75
2017-10-12T02:01:15.368Z,14.75
2017-10-12T02:01:55.906Z,14.7
2017-10-12T02:02:36.452Z,14.77
2017-10-12T02:03:17.007Z,14.78
2017-10-12T02:03:57.563Z,14.78
2017-10-12T02:04:38.105Z,14.77
2017-10-12T02:05:18.641Z,14.77
2017-10-12T02:05:59.173Z,14.81
2017-10-12T02:06:39.725Z,14.73
2017-10-12T02:07:20.253Z,14.81
2017-10-12T02:08:00.779Z,14.81
2017-10-12T02:08:41.315Z,14.81
2017-10-12T02:09:21.860Z,14.8
2017-10-12T02:10:02.394Z,14.8
2017-10-12T02:10:42.923Z,14.81
2017-10-12T02:11:23.464Z,14.84
2017-10-12T02:12:03.987Z,14.77
2017-10-12T02:12:44.535Z,14.78
2017-10-12T02:13:25.067Z,14.77
2017-10-12T02:14:05.640Z,14.77
2017-10-12T02:14:46.239Z,14.78
2017-10-12T02:15:26.715Z,14.81
2017-10-12T02:16:07.263Z,14.8
2017-10-12T02:16:47.781Z,14.8
2017-10-12T02:17:28.338Z,14.83
2017-10-12T02:18:08.848Z,14.8
2017-10-12T02:18:49.377Z,14.8
2017-10-12T02:19:29.922Z,14.78
2017-10-12T02:20:10.464Z,14.77
2017-10-12T02:20:51.033Z,14.77
2017-10-12T02:21:31.573Z,14.77
2017-10-12T02:22:12.113Z,14.77
2017-10-12T02:22:52.638Z,14.77
2017-10-12T02:23:33.167Z,14.77
2017-10-12T02:24:13.707Z,14.78
2017-10-12T02:24:54.232Z,14.77
2017-10-12T02:25:34.780Z,14.73
2017-10-12T02:26:15.331Z,14.73
2017-10-12T02:26:55.878Z,14.75
2017-10-12T02:27:36.397Z,14.73
2017-10-12T02:28:16.946Z,14.73
2017-10-12T02:28:57.491Z,14.77
2017-10-12T02:29:38.026Z,14.75
2017-10-12T02:30:18.551Z,14.75
2017-10-12T02:30:59.084Z,14.77
2017-10-12T02:31:39.617Z,14.83
2017-10-12T02:32:20.141Z,14.8
2017-10-12T02:33:00.675Z,14.72
2017-10-12T02:33:41.212Z,14.75
2017-10-12T02:34:21.737Z,14.73
2017-10-12T02:35:02.269Z,14.64
2017-10-12T02:35:42.800Z,14.78
2017-10-12T02:36:23.334Z,14.8
2017-10-12T02:37:03.869Z,14.73
2017-10-12T02:37:44.405Z,14.73
2017-10-12T02:38:25.027Z,14.65
2017-10-12T02:39:05.561Z,14.65
2017-10-12T02:41:19.807Z,14.73
2017-10-12T02:42:00.308Z,14.72
2017-10-12T02:42:40.822Z,14.7
2017-10-12T02:43:21.349Z,14.69
2017-10-12T02:44:01.888Z,14.64
2017-10-12T02:44:42.420Z,14.68
2017-10-12T02:45:22.958Z,14.69
2017-10-12T02:46:03.488Z,14.61
2017-10-12T02:46:44.008Z,14.61
2017-10-12T02:47:24.548Z,14.64
2017-10-12T02:48:05.106Z,14.6
2017-10-12T02:48:45.620Z,14.61
2017-10-12T02:49:26.152Z,14.65
2017-10-12T02:50:06.754Z,14.64
2017-10-12T02:50:47.416Z,14.57
2017-10-12T02:51:28.098Z,14.62
2017-10-12T02:52:08.617Z,14.62
2017-10-12T02:52:49.146Z,14.65
2017-10-12T02:53:29.720Z,14.6
2017-10-12T02:54:10.205Z,14.61
2017-10-12T02:54:50.723Z,14.55
2017-10-12T02:55:31.246Z,14.62
2017-10-12T02:56:11.785Z,14.72
2017-10-12T02:56:52.326Z,14.64
2017-10-12T02:57:32.859Z,14.7
2017-10-12T02:58:13.395Z,14.69
2017-10-12T02:58:53.901Z,14.55
2017-10-12T02:59:34.470Z,14.7
2017-10-12T03:00:15.009Z,14.69
2017-10-12T03:00:55.519Z,14.72
2017-10-12T03:01:36.081Z,14.69
2017-10-12T03:02:16.603Z,14.65
2017-10-12T03:02:57.126Z,14.72
2017-10-12T03:03:37.666Z,14.65
2017-10-12T03:04:18.219Z,14.72
2017-10-12T03:04:58.745Z,14.73
2017-10-12T03:05:39.271Z,14.72
2017-10-12T03:06:19.800Z,14.73
2017-10-12T03:07:00.327Z,14.75
2017-10-12T03:07:40.860Z,14.72
2017-10-12T03:08:21.419Z,14.78
2017-10-12T03:09:01.934Z,14.78
2017-10-12T03:09:42.468Z,14.72
2017-10-12T03:10:23.005Z,14.81
2017-10-12T03:11:03.519Z,14.75
2017-10-12T03:11:44.039Z,14.72
2017-10-12T03:12:24.567Z,14.73
2017-10-12T03:13:05.100Z,14.7
2017-10-12T03:13:45.628Z,14.69
2017-10-12T03:14:26.149Z,14.68
2017-10-12T03:15:06.679Z,14.68
2017-10-12T03:15:47.192Z,14.62
2017-10-12T03:16:27.712Z,14.69
2017-10-12T03:17:08.251Z,14.54
2017-10-12T03:17:48.777Z,14.52
2017-10-12T03:18:29.315Z,14.54
2017-10-12T03:19:09.880Z,14.55
2017-10-12T03:19:50.391Z,14.54
2017-10-12T03:20:30.935Z,14.51
2017-10-12T03:21:11.460Z,14.55
2017-10-12T03:21:52.013Z,14.43
2017-10-12T03:22:32.547Z,14.45
2017-10-12T03:23:13.078Z,14.47
2017-10-12T03:23:53.620Z,14.45
2017-10-12T03:24:34.154Z,14.42
2017-10-12T03:25:14.683Z,14.43
2017-10-12T03:25:55.266Z,14.46
2017-10-12T03:26:35.794Z,14.39
2017-10-12T03:27:16.331Z,14.45
2017-10-12T03:27:56.871Z,14.42
2017-10-12T03:28:37.409Z,14.39
2017-10-12T03:29:17.939Z,14.35
2017-10-12T03:29:58.475Z,14.4
2017-10-12T03:30:38.990Z,14.36
2017-10-12T03:31:19.523Z,14.37
2017-10-12T03:32:00.055Z,14.36
2017-10-12T03:32:40.586Z,14.35
2017-10-12T03:33:21.100Z,14.37
2017-10-12T03:34:01.643Z,14.4
2017-10-12T03:34:42.159Z,14.4
2017-10-12T03:35:22.689Z,14.37
2017-10-12T03:36:03.215Z,14.35
2017-10-12T03:36:44.005Z,14.4
2017-10-12T03:37:24.754Z,14.39
2017-10-12T03:38:05.400Z,14.47
2017-10-12T03:38:46.162Z,14.42
2017-10-12T03:39:27.057Z,14.43
2017-10-12T03:40:07.874Z,14.42
2017-10-12T03:40:48.575Z,14.5
2017-10-12T03:41:29.102Z,14.54
2017-10-12T03:42:09.643Z,14.58
2017-10-12T03:42:50.172Z,14.55
2017-10-12T03:43:30.694Z,14.55
2017-10-12T03:44:11.221Z,14.54
2017-10-12T03:44:51.788Z,14.55
2017-10-12T03:45:32.339Z,14.52
2017-10-12T03:46:12.869Z,14.62
2017-10-12T03:46:53.427Z,14.51
2017-10-12T03:47:33.972Z,14.52
2017-10-12T03:48:14.490Z,14.58
2017-10-12T03:48:55.015Z,14.57
2017-10-12T03:49:35.543Z,14.55
2017-10-12T03:50:16.139Z,14.52
2017-10-12T03:50:56.663Z,14.57
2017-10-12T03:51:37.179Z,14.57
2017-10-12T03:52:17.726Z,14.52
2017-10-12T03:52:58.247Z,14.61
2017-10-12T03:53:38.772Z,14.52
2017-10-12T03:54:19.300Z,14.52
2017-10-12T03:54:59.845Z,14.57
2017-10-12T03:55:40.347Z,14.54
2017-10-12T03:56:20.883Z,14.55
2017-10-12T03:57:01.430Z,14.52
2017-10-12T03:57:41.988Z,14.54
2017-10-12T03:58:22.520Z,14.57
2017-10-12T03:59:03.082Z,14.57
2017-10-12T03:59:43.601Z,14.58
2017-10-12T04:00:24.133Z,14.51
2017-10-12T04:01:04.673Z,14.47
2017-10-12T04:01:45.209Z,14.5
2017-10-12T04:02:25.732Z,14.46
2017-10-12T04:03:06.269Z,14.43
2017-10-12T04:03:46.813Z,14.43
2017-10-12T04:04:27.326Z,14.43
2017-10-12T04:05:07.861Z,14.45
2017-10-12T04:05:48.393Z,14.46
2017-10-12T04:06:28.916Z,14.42
2017-10-12T04:07:09.438Z,14.42
2017-10-12T04:07:49.963Z,14.51
2017-10-12T04:08:30.501Z,14.42
2017-10-12T04:09:11.092Z,14.43
2017-10-12T04:09:51.568Z,14.39
2017-10-12T04:10:32.094Z,14.36
2017-10-12T04:11:12.605Z,14.46
2017-10-12T04:11:53.135Z,14.5
2017-10-12T04:12:33.655Z,14.42
2017-10-12T04:13:14.161Z,14.4
2017-10-12T04:13:54.681Z,14.42
2017-10-12T04:14:35.214Z,14.39
2017-10-12T04:15:15.750Z,14.43
2017-10-12T04:15:56.264Z,14.4
2017-10-12T04:16:36.771Z,14.37
2017-10-12T04:17:17.306Z,14.35
2017-10-12T04:17:57.822Z,14.37
2017-10-12T04:18:38.355Z,14.4
2017-10-12T04:19:18.876Z,14.36
2017-10-12T04:19:59.402Z,14.35
2017-10-12T04:20:39.947Z,14.39
2017-10-12T04:21:20.457Z,14.4
2017-10-12T04:22:00.996Z,14.52
2017-10-12T04:22:41.525Z,14.46
2017-10-12T04:23:22.064Z,14.45
2017-10-12T04:24:02.596Z,14.46
2017-10-12T04:24:43.142Z,14.39
2017-10-12T04:25:23.672Z,14.51
2017-10-12T04:26:04.209Z,14.43
2017-10-12T04:26:44.746Z,14.45
2017-10-12T04:27:25.275Z,14.42
2017-10-12T04:28:05.810Z,14.43
2017-10-12T04:28:46.352Z,14.43
2017-10-12T04:29:26.958Z,14.51
2017-10-12T04:30:07.503Z,14.57
2017-10-12T04:30:48.084Z,14.58
2017-10-12T04:31:28.612Z,14.52
2017-10-12T04:32:09.169Z,14.54
2017-10-12T04:32:49.669Z,14.55
2017-10-12T04:33:30.261Z,14.5
2017-10-12T04:34:10.795Z,14.5
2017-10-12T04:34:51.291Z,14.58
2017-10-12T04:35:31.820Z,14.58
2017-10-12T04:36:12.347Z,14.58
2017-10-12T04:36:52.877Z,14.58
2017-10-12T04:37:33.402Z,14.6
2017-10-12T04:38:13.936Z,14.62
2017-10-12T04:38:54.468Z,14.6
2017-10-12T04:39:35.445Z,14.68
2017-10-12T04:40:16.355Z,14.65
2017-10-12T04:40:57.227Z,14.61
2017-10-12T04:41:37.998Z,14.6
2017-10-12T04:42:19.022Z,14.61
2017-10-12T04:42:59.927Z,14.61
2017-10-12T04:43:41.002Z,14.68
2017-10-12T04:44:21.745Z,14.77
2017-10-12T04:45:02.578Z,14.68
2017-10-12T04:45:43.569Z,14.73
2017-10-12T04:46:24.072Z,14.73
2017-10-12T04:47:04.620Z,14.75
2017-10-12T04:47:45.132Z,14.73
2017-10-12T04:48:25.670Z,14.78
2017-10-12T04:49:06.220Z,14.78
2017-10-12T04:49:46.746Z,14.75
2017-10-12T04:50:27.281Z,14.78
2017-10-12T04:51:07.804Z,14.78
2017-10-12T04:51:48.332Z,14.78
2017-10-12T04:52:28.864Z,14.81
2017-10-12T04:53:09.435Z,14.77
2017-10-12T04:53:49.977Z,14.78
2017-10-12T04:54:30.494Z,14.78
2017-10-12T04:55:11.014Z,14.72
2017-10-12T04:55:51.539Z,14.77
2017-10-12T04:56:32.051Z,14.7
2017-10-12T04:57:12.583Z,14.72
2017-10-12T04:57:53.117Z,14.72
2017-10-12T04:58:33.657Z,14.77
2017-10-12T04:59:14.487Z,14.77
2017-10-12T04:59:55.020Z,14.77
2017-10-12T05:00:35.579Z,14.88
2017-10-12T05:01:16.132Z,14.8
2017-10-12T05:01:56.695Z,14.89
2017-10-12T05:02:37.191Z,14.96
2017-10-12T05:03:17.737Z,14.98
2017-10-12T05:03:58.274Z,14.94
2017-10-12T05:04:38.841Z,14.94
2017-10-12T05:05:19.427Z,15.03
2017-10-12T05:05:59.962Z,15.03
2017-10-12T05:06:40.497Z,15.03
2017-10-12T05:07:21.027Z,14.95
2017-10-12T05:08:01.565Z,14.95
2017-10-12T05:08:42.091Z,15.07
2017-10-12T05:09:22.638Z,15.01
2017-10-12T05:10:03.182Z,15.07
2017-10-12T05:10:43.700Z,15.02
2017-10-12T05:11:24.241Z,15.03
2017-10-12T05:12:04.783Z,15.01
2017-10-12T05:12:45.327Z,15.06
2017-10-12T05:13:25.896Z,14.95
2017-10-12T05:14:06.420Z,14.95
2017-10-12T05:14:46.951Z,14.92
2017-10-12T05:15:27.470Z,14.91
2017-10-12T05:16:08.014Z,14.98
2017-10-12T05:16:48.546Z,14.92
2017-10-12T05:17:29.096Z,14.92
2017-10-12T05:18:09.634Z,14.86
2017-10-12T05:18:50.166Z,14.88
2017-10-12T05:19:30.739Z,14.89
2017-10-12T05:20:11.255Z,14.83
2017-10-12T05:20:51.787Z,14.77
2017-10-12T05:21:32.331Z,14.77
2017-10-12T05:22:12.864Z,14.8
2017-10-12T05:22:53.379Z,14.8
2017-10-12T05:23:33.917Z,14.7
2017-10-12T05:24:14.454Z,14.73
2017-10-12T05:24:54.995Z,14.64
2017-10-12T05:25:35.524Z,14.7
2017-10-12T05:26:16.064Z,14.65
2017-10-12T05:26:56.594Z,14.69
2017-10-12T05:27:37.125Z,14.69
2017-10-12T05:28:17.642Z,14.7
2017-10-12T05:28:58.144Z,14.69
2017-10-12T05:29:38.678Z,14.8
2017-10-12T05:30:19.228Z,14.78
2017-10-12T05:30:59.761Z,14.83
2017-10-12T05:31:40.314Z,14.8
2017-10-12T05:32:20.831Z,14.8
2017-10-12T05:33:01.367Z,14.88
2017-10-12T05:33:41.887Z,14.89
2017-10-12T05:34:22.426Z,14.94
2017-10-12T05:35:02.955Z,14.92
2017-10-12T05:35:43.473Z,14.98
2017-10-12T05:36:24.009Z,14.96
2017-10-12T05:37:04.549Z,14.95
2017-10-12T05:37:45.105Z,14.95
2017-10-12T05:38:25.618Z,14.96
2017-10-12T05:39:06.159Z,14.94
2017-10-12T05:39:47.041Z,14.96
2017-10-12T05:40:27.614Z,14.98
2017-10-12T05:41:08.168Z,14.96
2017-10-12T05:41:48.699Z,14.99
2017-10-12T05:42:29.233Z,14.84
2017-10-12T05:43:09.764Z,14.8
2017-10-12T05:43:50.283Z,14.78
2017-10-12T05:44:30.833Z,14.86
2017-10-12T05:45:11.352Z,14.81
2017-10-12T05:45:51.882Z,14.78
2017-10-12T05:46:32.450Z,14.77
2017-10-12T05:47:12.942Z,14.75
2017-10-12T05:47:53.496Z,14.75
2017-10-12T05:48:34.022Z,14.81
2017-10-12T05:49:14.578Z,14.84
2017-10-12T05:49:55.103Z,14.84
2017-10-12T05:50:35.647Z,14.83
2017-10-12T05:51:16.179Z,14.84
2017-10-12T05:51:56.734Z,14.89
2017-10-12T05:52:37.301Z,14.8
2017-10-12T05:53:17.837Z,14.8
2017-10-12T05:53:58.359Z,14.91
2017-10-12T05:54:38.891Z,14.81
2017-10-12T05:55:19.402Z,14.77
2017-10-12T05:55:59.933Z,14.7
2017-10-12T05:56:40.483Z,14.7
2017-10-12T05:57:21.002Z,14.8
2017-10-12T05:58:01.525Z,14.77
2017-10-12T05:58:42.065Z,14.65
2017-10-12T05:59:22.600Z,14.72
2017-10-12T06:00:03.132Z,14.72
2017-10-12T06:00:43.648Z,14.77
2017-10-12T06:01:24.180Z,14.81
2017-10-12T06:02:04.738Z,14.77
2017-10-12T06:02:45.260Z,14.81
2017-10-12T06:03:25.804Z,14.86
2017-10-12T06:04:06.321Z,14.81
2017-10-12T06:04:46.843Z,14.83
2017-10-12T06:05:27.403Z,14.84
2017-10-12T06:06:07.958Z,14.8
2017-10-12T06:06:48.457Z,14.84
2017-10-12T06:07:30.901Z,14.77
2017-10-12T06:08:11.409Z,14.86
2017-10-12T06:08:51.941Z,14.86
2017-10-12T06:09:32.491Z,14.88
2017-10-12T06:10:13.009Z,14.83
2017-10-12T06:10:53.532Z,14.84
2017-10-12T06:11:34.132Z,14.86
2017-10-12T06:12:14.653Z,14.88
2017-10-12T06:12:55.194Z,14.84
2017-10-12T06:13:35.709Z,14.84
2017-10-12T06:14:16.332Z,14.84
2017-10-12T06:14:56.892Z,14.84
2017-10-12T06:15:37.425Z,14.86
2017-10-12T06:17:31.429Z,14.89
2017-10-12T06:18:11.956Z,14.88
2017-10-12T06:18:52.479Z,14.94
2017-10-12T06:19:33.017Z,14.94
2017-10-12T06:20:13.542Z,14.98
2017-10-12T06:20:54.103Z,14.96
2017-10-12T06:21:34.666Z,14.94
2017-10-12T06:22:15.199Z,14.95
2017-10-12T06:22:55.735Z,14.92
2017-10-12T06:23:36.269Z,14.92
2017-10-12T06:24:16.866Z,14.96
2017-10-12T06:24:57.439Z,14.96
2017-10-12T06:25:37.974Z,14.99
2017-10-12T06:26:18.495Z,14.95
2017-10-12T06:26:59.028Z,14.95
2017-10-12T06:27:39.564Z,14.98
2017-10-12T06:28:20.090Z,14.99
2017-10-12T06:29:00.619Z,14.96
2017-10-12T06:29:41.156Z,14.91
2017-10-12T06:30:21.714Z,14.84
2017-10-12T06:31:02.251Z,14.88
2017-10-12T06:31:42.769Z,14.83
2017-10-12T06:32:23.292Z,14.88
2017-10-12T06:33:03.814Z,14.84
2017-10-12T06:33:44.369Z,14.84
2017-10-12T06:34:24.883Z,14.83
2017-10-12T06:35:05.400Z,14.75
2017-10-12T06:35:45.916Z,14.86
2017-10-12T06:36:26.434Z,14.83
2017-10-12T06:37:06.963Z,14.86
2017-10-12T06:37:47.482Z,14.88
2017-10-12T06:38:28.005Z,14.92
2017-10-12T06:39:08.536Z,14.92
2017-10-12T06:39:49.065Z,14.95
2017-10-12T06:40:29.596Z,14.99
2017-10-12T06:41:10.119Z,15.03
2017-10-12T06:41:50.645Z,14.95
2017-10-12T06:42:31.169Z,15.01
2017-10-12T06:43:11.736Z,15.03
2017-10-12T06:43:52.270Z,15.06
2017-10-12T06:44:32.794Z,15.02
2017-10-12T06:45:13.309Z,15.03
2017-10-12T06:45:53.830Z,15.19
2017-10-12T06:46:34.403Z,15.16
2017-10-12T06:47:14.918Z,15.14
2017-10-12T06:47:55.446Z,15.2
2017-10-12T06:48:35.970Z,15.2
2017-10-12T06:49:16.517Z,15.23
2017-10-12T06:49:57.046Z,15.2
2017-10-12T06:50:37.582Z,15.23
2017-10-12T06:51:18.102Z,15.23
2017-10-12T06:51:58.632Z,15.28
2017-10-12T06:52:39.167Z,15.35
2017-10-12T06:53:19.702Z,15.35
2017-10-12T06:54:00.241Z,15.34
2017-10-12T06:54:40.758Z,15.31
2017-10-12T06:55:21.377Z,15.35
2017-10-12T06:56:01.917Z,15.34
2017-10-12T06:56:42.430Z,15.35
2017-10-12T06:57:22.960Z,15.36
2017-10-12T06:58:03.538Z,15.34
2017-10-12T06:58:44.066Z,15.28
2017-10-12T06:59:24.602Z,15.31
2017-10-12T07:00:05.135Z,15.31
2017-10-12T07:00:45.664Z,15.34
2017-10-12T07:01:26.181Z,15.28
2017-10-12T07:02:06.715Z,15.21
2017-10-12T07:02:47.248Z,15.28
2017-10-12T07:03:27.773Z,15.23
2017-10-12T07:04:08.323Z,15.17
2017-10-12T07:04:48.855Z,15.25
2017-10-12T07:05:29.383Z,15.2
2017-10-12T07:06:09.917Z,15.17
2017-10-12T07:06:50.435Z,15.19
2017-10-12T07:07:30.989Z,15.17
2017-10-12T07:08:11.520Z,15.23
2017-10-12T07:08:52.054Z,15.2
2017-10-12T07:09:32.575Z,15.21
2017-10-12T07:10:13.159Z,15.13
2017-10-12T07:10:53.706Z,15.21
2017-10-12T07:11:34.226Z,15.17
2017-10-12T07:12:14.755Z,15.25
2017-10-12T07:12:55.318Z,15.17
2017-10-12T07:13:35.836Z,15.25
2017-10-12T07:14:16.354Z,15.2
2017-10-12T07:14:56.882Z,15.27
2017-10-12T07:15:37.394Z,15.29
2017-10-12T07:16:17.922Z,15.27
2017-10-12T07:16:58.473Z,15.23
2017-10-12T07:17:38.969Z,15.25
2017-10-12T07:18:19.512Z,15.28
2017-10-12T07:19:00.026Z,15.31
2017-10-12T07:19:40.544Z,15.27
2017-10-12T07:20:21.069Z,15.25
2017-10-12T07:21:01.597Z,15.2
2017-10-12T07:21:42.133Z,15.35
2017-10-12T07:22:22.664Z,15.29
2017-10-12T07:23:03.204Z,15.27
2017-10-12T07:23:43.717Z,15.27
2017-10-12T07:24:24.257Z,15.34
2017-10-12T07:25:04.786Z,15.21
2017-10-12T07:25:45.326Z,15.23
2017-10-12T07:26:25.840Z,15.25
2017-10-12T07:27:06.362Z,15.25
2017-10-12T07:27:46.897Z,15.19
2017-10-12T07:28:27.426Z,15.13
2017-10-12T07:29:07.967Z,15.16
2017-10-12T07:29:48.494Z,15.1
2017-10-12T07:30:29.012Z,15.1
2017-10-12T07:31:09.570Z,15.16
2017-10-12T07:31:50.106Z,15.09
2017-10-12T07:32:30.634Z,15.03
2017-10-12T07:33:11.193Z,15.09
2017-10-12T07:33:51.720Z,15.11
2017-10-12T07:34:32.238Z,15.03
2017-10-12T07:35:12.771Z,15.13
2017-10-12T07:35:53.298Z,15.16
2017-10-12T07:36:33.868Z,15.17
2017-10-12T07:37:14.409Z,15.11
2017-10-12T07:37:54.936Z,15.17
2017-10-12T07:38:35.461Z,15.23
2017-10-12T07:39:16.012Z,15.25
2017-10-12T07:39:56.542Z,15.27
2017-10-12T07:40:37.090Z,15.25
2017-10-12T07:41:17.651Z,15.25
2017-10-12T07:41:58.182Z,15.21
2017-10-12T07:42:38.706Z,15.2
2017-10-12T07:43:19.240Z,15.21
2017-10-12T07:43:59.768Z,15.21
2017-10-12T07:44:40.295Z,15.16
2017-10-12T07:45:20.841Z,15.14
2017-10-12T07:46:01.354Z,15.13
2017-10-12T07:46:41.872Z,15.14
2017-10-12T07:47:22.394Z,15.13
2017-10-12T07:48:02.916Z,15.11
2017-10-12T07:48:43.445Z,15.13
2017-10-12T07:49:24.006Z,15.14
2017-10-12T07:50:04.546Z,15.13
2017-10-12T07:50:45.076Z,15.14
2017-10-12T07:51:25.609Z,15.09
2017-10-12T07:52:06.146Z,15.16
2017-10-12T07:52:46.670Z,15.17
2017-10-12T07:53:27.258Z,15.14
2017-10-12T07:54:07.792Z,15.14
2017-10-12T07:54:48.359Z,15.19
2017-10-12T07:55:28.866Z,15.2
2017-10-12T07:56:09.417Z,15.2
2017-10-12T07:56:49.912Z,15.21
2017-10-12T07:57:30.454Z,15.29
2017-10-12T07:58:10.987Z,15.17
2017-10-12T07:58:51.510Z,15.29
2017-10-12T07:59:32.077Z,15.29
2017-10-12T08:00:12.618Z,15.2
2017-10-12T08:00:53.151Z,15.25
2017-10-12T08:01:33.678Z,15.23
2017-10-12T08:02:14.228Z,15.17
2017-10-12T08:02:54.758Z,15.19
2017-10-12T08:03:35.294Z,15.21
2017-10-12T08:04:15.829Z,15.27
2017-10-12T08:04:56.357Z,15.31
2017-10-12T08:05:36.897Z,15.36
2017-10-12T08:06:17.457Z,15.31
2017-10-12T08:06:57.986Z,15.32
2017-10-12T08:07:38.512Z,15.34
2017-10-12T08:08:19.048Z,15.44
2017-10-12T08:08:59.596Z,15.41
2017-10-12T08:09:40.125Z,15.39
2017-10-12T08:10:20.667Z,15.46
2017-10-12T08:11:01.192Z,15.51
2017-10-12T08:11:41.717Z,15.5
2017-10-12T08:12:22.251Z,15.67
2017-10-12T08:13:02.790Z,15.54
2017-10-12T08:13:43.327Z,15.59
2017-10-12T08:14:23.854Z,15.57
2017-10-12T08:15:04.395Z,15.65
2017-10-12T08:15:44.920Z,15.6
2017-10-12T08:16:25.451Z,15.57
2017-10-12T08:17:06.026Z,15.62
2017-10-12T08:17:46.524Z,15.67
2017-10-12T08:18:27.059Z,15.72
2017-10-12T08:19:07.579Z,15.75
2017-10-12T08:19:48.173Z,15.69
2017-10-12T08:20:28.727Z,15.67
2017-10-12T08:21:09.247Z,15.69
2017-10-12T08:21:49.764Z,15.78
2017-10-12T08:22:30.304Z,15.69
2017-10-12T08:23:10.825Z,15.71
2017-10-12T08:23:51.349Z,15.64
2017-10-12T08:24:31.879Z,15.72
2017-10-12T08:25:12.405Z,15.68
2017-10-12T08:25:52.934Z,15.6
2017-10-12T08:26:33.484Z,15.62
2017-10-12T08:27:14.000Z,15.53
2017-10-12T08:27:54.534Z,15.54
2017-10-12T08:28:35.051Z,15.51
2017-10-12T08:29:15.600Z,15.51
2017-10-12T08:29:56.131Z,15.43
2017-10-12T08:30:36.674Z,15.49
2017-10-12T08:31:17.191Z,15.44
2017-10-12T08:31:57.731Z,15.39
2017-10-12T08:32:38.262Z,15.38
2017-10-12T08:33:18.803Z,15.44
2017-10-12T08:33:59.340Z,15.47
2017-10-12T08:34:39.874Z,15.46
2017-10-12T08:35:20.425Z,15.38
2017-10-12T08:36:01.006Z,15.34
2017-10-12T08:36:41.545Z,15.36
2017-10-12T08:37:22.080Z,15.32
2017-10-12T08:38:02.616Z,15.43
2017-10-12T08:38:43.141Z,15.43
2017-10-12T08:39:23.674Z,15.46
2017-10-12T08:40:04.203Z,15.67
2017-10-12T08:40:44.737Z,15.69
2017-10-12T08:41:25.267Z,15.74
2017-10-12T08:42:05.792Z,15.9
2017-10-12T08:42:46.347Z,15.94
2017-10-12T08:43:26.851Z,15.96
2017-10-12T08:44:07.369Z,16.04
2017-10-12T08:44:47.898Z,16.12
2017-10-12T08:45:28.447Z,16.14
2017-10-12T08:46:08.995Z,16.27
2017-10-12T08:46:49.501Z,16.34